Time;durP1;ratioP1;P1;durP2;ratioP2;P2;SDS_P1;SDS_P2;PMS_P1;PMS_P2;Temp;Humidity;BMP_temperature;BMP_pressure;BME280_temperature;BME280_humidity;BME280_pressure;Samples;Min_cycle;Max_cycle;Signal;HPM_P1;HPM_P2
2022/06/05 00:02:17;;;;;;;8.57;4.10;;;;;;;25.28;66.91;99013.50;5074130;28;20180;-92
2022/06/05 00:05:09;;;;;;;7.10;3.20;;;;;;;25.23;67.13;99013.22;5073743;28;20169;-91
2022/06/05 00:07:56;;;;;;;6.73;3.37;;;;;;;25.16;67.30;99014.09;5073972;28;20644;-91
2022/06/05 00:10:26;;;;;;;5.30;3.00;;;;;;;25.19;67.55;99011.03;5074084;28;20165;-92
2022/06/05 00:13:06;;;;;;;8.43;3.27;;;;;;;25.21;66.89;99001.78;5073733;28;20195;-92
2022/06/05 00:15:32;;;;;;;6.13;3.40;;;;;;;25.21;66.94;99000.97;5073919;28;20595;-90
2022/06/05 00:17:59;;;;;;;7.97;3.00;;;;;;;25.17;66.92;98997.81;5073601;28;20176;-91
2022/06/05 00:20:24;;;;;;;5.87;3.50;;;;;;;25.26;66.77;98993.22;5072537;28;20177;-92
2022/06/05 00:22:50;;;;;;;9.23;3.10;;;;;;;25.30;66.43;98994.53;5073172;28;20645;-91
2022/06/05 00:25:15;;;;;;;5.83;3.20;;;;;;;25.32;66.13;98997.88;5073457;28;20549;-91
2022/06/05 00:28:05;;;;;;;10.17;3.70;;;;;;;25.27;66.18;98997.56;5073358;28;20177;-91
2022/06/05 00:30:58;;;;;;;8.83;3.40;;;;;;;25.24;66.19;98996.06;5072350;28;20165;-91
2022/06/05 00:33:29;;;;;;;5.13;3.17;;;;;;;25.23;66.41;98997.09;5073518;28;20185;-91
2022/06/05 00:36:09;;;;;;;4.87;2.93;;;;;;;25.17;66.61;98991.59;5073637;28;20199;-90
2022/06/05 00:38:43;;;;;;;6.73;3.67;;;;;;;25.03;67.07;98999.38;5073597;28;20245;-90
2022/06/05 00:41:23;;;;;;;9.07;2.70;;;;;;;24.94;67.42;99003.13;5073233;28;20223;-90
2022/06/05 00:43:50;;;;;;;6.00;2.90;;;;;;;24.86;68.12;99000.47;5072329;28;20254;-91
2022/06/05 00:46:16;;;;;;;8.47;3.50;;;;;;;24.86;68.04;99005.84;5073285;28;20256;-91
2022/06/05 00:48:41;;;;;;;6.53;3.37;;;;;;;24.85;68.62;99006.84;5073495;28;20211;-91
2022/06/05 00:51:07;;;;;;;8.63;3.90;;;;;;;24.87;67.88;98990.56;5073631;28;20180;-90
2022/06/05 00:53:32;;;;;;;7.60;3.20;;;;;;;24.85;67.85;98997.97;5072229;28;20188;-90
2022/06/05 00:55:58;;;;;;;6.40;3.50;;;;;;;24.83;68.16;99006.19;5073461;28;20234;-91
2022/06/05 00:58:24;;;;;;;4.93;2.70;;;;;;;24.81;67.91;99008.22;5072068;28;20223;-91
2022/06/05 01:00:52;;;;;;;6.43;3.63;;;;;;;24.67;68.65;99016.94;5073583;28;20164;-90
2022/06/05 01:03:20;;;;;;;6.70;3.60;;;;;;;24.65;68.67;99018.97;5073322;28;20164;-90
2022/06/05 01:05:45;;;;;;;6.53;3.47;;;;;;;24.60;68.48;99026.69;5072080;28;20181;-91
2022/06/05 01:08:13;;;;;;;6.00;3.33;;;;;;;24.56;68.95;99025.34;5072111;28;20583;-91
2022/06/05 01:10:49;;;;;;;7.60;3.97;;;;;;;24.51;69.24;99026.84;5073303;28;20177;-91
2022/06/05 01:13:35;;;;;;;7.80;3.50;;;;;;;24.54;69.01;99026.53;5073383;28;20266;-90
2022/06/05 01:16:09;;;;;;;7.67;3.70;;;;;;;24.57;68.40;99023.50;5069289;28;20185;-90
2022/06/05 01:18:43;;;;;;;6.00;3.40;;;;;;;24.57;68.39;99020.81;5073458;28;20241;-91
2022/06/05 01:21:08;;;;;;;7.47;3.47;;;;;;;24.51;68.60;99022.34;5073144;28;20165;-90
2022/06/05 01:24:02;;;;;;;6.90;4.00;;;;;;;24.50;68.20;99019.84;5072895;28;20169;-91
2022/06/05 01:26:34;;;;;;;6.80;3.20;;;;;;;24.50;68.30;99020.69;5073138;28;20184;-91
2022/06/05 01:29:05;;;;;;;8.33;4.67;;;;;;;24.53;68.08;99016.81;5073152;28;20188;-91
2022/06/05 01:31:44;;;;;;;6.77;3.80;;;;;;;24.54;67.63;99018.47;5072666;28;20188;-90
2022/06/05 01:34:23;;;;;;;8.63;4.87;;;;;;;24.47;67.58;99020.19;5072517;28;20161;-91
2022/06/05 01:37:14;;;;;;;9.10;3.83;;;;;;;24.37;68.55;99021.19;5076591;28;20215;-90
2022/06/05 01:39:51;;;;;;;8.47;3.87;;;;;;;24.36;68.34;99013.34;5077060;28;20168;-90
2022/06/05 01:42:23;;;;;;;7.50;4.53;;;;;;;24.38;68.19;99017.53;5076704;28;20153;-91
2022/06/05 01:44:55;;;;;;;10.27;4.80;;;;;;;24.35;68.44;99017.00;5076933;28;20157;-90
2022/06/05 01:47:32;;;;;;;9.43;5.17;;;;;;;24.26;69.19;99020.72;5076410;28;20236;-90
2022/06/05 01:50:19;;;;;;;8.67;5.00;;;;;;;24.16;69.16;99028.13;5075450;28;20244;-91
2022/06/05 01:52:54;;;;;;;9.73;4.57;;;;;;;24.13;68.93;99015.91;5075416;28;20275;-91
2022/06/05 01:55:30;;;;;;;8.23;3.80;;;;;;;24.08;68.94;99018.22;5075912;28;20184;-91
2022/06/05 01:57:59;;;;;;;10.37;4.43;;;;;;;24.08;68.82;99025.41;5076223;28;20199;-91
2022/06/05 02:00:25;;;;;;;10.03;4.73;;;;;;;23.97;69.37;99034.63;5076197;28;20243;-91
2022/06/05 02:03:11;;;;;;;11.77;5.10;;;;;;;23.84;70.11;99029.78;5076186;28;20510;-91
2022/06/05 02:05:45;;;;;;;9.07;4.10;;;;;;;23.82;69.92;99028.22;5075176;28;20176;-92
2022/06/05 02:08:27;;;;;;;13.50;5.23;;;;;;;23.75;69.67;99019.22;5075141;28;20162;-92
2022/06/05 02:11:00;;;;;;;8.77;4.60;;;;;;;23.71;69.98;99018.72;5076350;28;20597;-91
2022/06/05 02:13:25;;;;;;;8.00;4.53;;;;;;;23.66;70.27;99020.22;5075559;28;20276;-91
2022/06/05 02:15:52;;;;;;;11.77;5.33;;;;;;;23.67;69.96;99017.38;5075973;28;20651;-91
2022/06/05 02:18:19;;;;;;;8.53;4.70;;;;;;;23.64;69.57;99011.50;5076485;28;20212;-91
2022/06/05 02:20:45;;;;;;;6.57;3.77;;;;;;;23.64;69.79;99011.50;5074799;28;20546;-91
2022/06/05 02:23:14;;;;;;;8.30;4.80;;;;;;;23.58;69.54;99017.53;5076192;28;20169;-91
2022/06/05 02:25:41;;;;;;;7.57;4.63;;;;;;;23.50;70.36;99010.34;5076313;28;20635;-91
2022/06/05 02:28:11;;;;;;;12.10;5.33;;;;;;;23.45;70.49;99011.84;5075672;28;20253;-90
2022/06/05 02:30:53;;;;;;;15.67;8.07;;;;;;;23.45;70.35;99017.19;5076184;28;20256;-91
2022/06/05 02:33:43;;;;;;;10.83;5.30;;;;;;;23.51;69.89;99006.63;5074672;28;20264;-91
2022/06/05 02:36:28;;;;;;;10.10;5.30;;;;;;;23.47;70.08;99013.34;5075817;28;20161;-91
2022/06/05 02:39:00;;;;;;;9.37;5.17;;;;;;;23.45;69.96;99012.69;5075526;28;20604;-91
2022/06/05 02:41:40;;;;;;;9.63;4.30;;;;;;;23.42;70.63;99002.28;5075385;28;20172;-90
2022/06/05 02:44:31;;;;;;;7.50;3.20;;;;;;;23.38;70.90;99008.13;5074446;28;20187;-91
2022/06/05 02:47:15;;;;;;;8.23;4.77;;;;;;;23.25;71.42;98995.19;5074252;28;20197;-91
2022/06/05 02:49:42;;;;;;;8.90;4.10;;;;;;;23.23;71.25;99003.41;5074463;28;20195;-91
2022/06/05 02:52:08;;;;;;;8.10;4.70;;;;;;;23.22;71.06;99000.88;5075216;28;20197;-91
2022/06/05 02:57:56;;;;;;;8.10;4.07;;;;;;;23.22;71.34;99003.53;5073074;28;20337;-91
2022/06/05 03:00:24;;;;;;;9.07;4.70;;;;;;;23.34;70.66;99010.28;5074164;28;20551;-91
2022/06/05 03:05:37;;;;;;;7.47;4.07;;;;;;;23.44;69.15;99016.34;5075580;28;20172;-91
2022/06/05 03:08:04;;;;;;;10.43;4.17;;;;;;;23.42;68.76;99007.66;5075000;28;20732;-91
2022/06/05 03:10:29;;;;;;;11.03;4.17;;;;;;;23.41;69.14;99008.63;5073927;28;20173;-91
2022/06/05 03:12:55;;;;;;;8.00;3.63;;;;;;;23.41;69.23;99002.44;5075057;28;20197;-91
2022/06/05 03:15:21;;;;;;;5.33;3.33;;;;;;;23.40;69.47;99006.94;5075412;28;20247;-91
2022/06/05 03:17:47;;;;;;;4.80;3.13;;;;;;;23.33;70.34;99018.44;5073874;28;20177;-92
2022/06/05 03:20:15;;;;;;;7.93;3.67;;;;;;;23.29;70.48;99007.25;5090666;28;20183;-91
2022/06/05 03:22:41;;;;;;;9.90;4.53;;;;;;;23.27;70.49;99005.75;5073721;28;20176;-91
2022/06/05 03:25:08;;;;;;;7.63;3.70;;;;;;;23.36;70.50;99004.75;5073783;28;20201;-91
2022/06/05 03:27:33;;;;;;;7.70;3.17;;;;;;;23.36;69.95;99008.25;5073560;28;20169;-92
2022/06/05 03:30:00;;;;;;;7.03;3.77;;;;;;;23.33;70.46;99005.06;5073639;28;20639;-92
2022/06/05 03:32:26;;;;;;;6.13;3.43;;;;;;;23.38;70.07;99008.13;5074425;28;20698;-91
2022/06/05 03:34:53;;;;;;;6.47;3.47;;;;;;;23.43;70.25;99009.31;5074680;28;20169;-91
2022/06/05 03:37:19;;;;;;;10.47;3.60;;;;;;;23.44;70.40;99013.66;5074350;28;20260;-91
2022/06/05 03:39:45;;;;;;;6.43;3.40;;;;;;;23.48;70.66;99014.19;5074574;28;20179;-91
2022/06/05 03:42:10;;;;;;;11.23;3.20;;;;;;;23.55;70.32;99009.84;5074297;28;20173;-91
2022/06/05 03:44:41;;;;;;;8.07;3.60;;;;;;;23.59;70.12;99014.69;5074286;28;20169;-90
2022/06/05 03:47:08;;;;;;;7.90;3.97;;;;;;;23.55;70.30;99013.34;5074718;28;20173;-91
2022/06/05 03:49:34;;;;;;;6.23;3.77;;;;;;;23.60;70.74;99015.53;5074782;28;20177;-91
2022/06/05 03:52:01;;;;;;;9.77;3.80;;;;;;;23.61;71.12;99014.53;5073438;28;20193;-91
2022/06/05 03:54:26;;;;;;;7.53;4.00;;;;;;;23.60;70.86;99005.66;5073035;28;20181;-91
2022/06/05 03:56:52;;;;;;;9.27;4.47;;;;;;;23.58;71.85;99007.69;5073352;28;20240;-91
2022/06/05 03:59:18;;;;;;;5.80;3.47;;;;;;;23.72;71.62;99003.47;5074471;28;20240;-92
2022/06/05 04:01:43;;;;;;;8.40;3.93;;;;;;;23.77;72.15;98999.28;5074036;28;20168;-92
2022/06/05 04:04:09;;;;;;;7.87;3.50;;;;;;;23.79;71.78;98993.78;5073847;28;20586;-91
2022/06/05 04:06:34;;;;;;;7.33;3.80;;;;;;;23.84;72.30;98991.44;5072974;28;20181;-91
2022/06/05 04:09:03;;;;;;;7.63;4.17;;;;;;;23.97;71.88;98988.25;5073695;28;20165;-91
2022/06/05 04:11:31;;;;;;;7.43;3.53;;;;;;;24.07;71.70;98991.59;5073598;28;20614;-91
2022/06/05 04:13:57;;;;;;;6.97;3.80;;;;;;;24.16;72.00;98994.09;5073748;28;20165;-91
2022/06/05 04:16:26;;;;;;;6.67;3.30;;;;;;;24.29;72.00;98997.09;5073668;28;20642;-91
2022/06/05 04:18:52;;;;;;;6.23;3.00;;;;;;;24.48;70.84;99000.41;5072720;28;20173;-91
2022/06/05 04:21:23;;;;;;;6.83;3.20;;;;;;;24.53;70.58;98998.06;5073577;28;20183;-91
2022/06/05 04:23:50;;;;;;;8.40;3.87;;;;;;;24.60;70.85;98986.47;5073551;28;20184;-91
2022/06/05 04:26:20;;;;;;;7.53;3.43;;;;;;;24.62;70.74;98984.47;5073783;28;20169;-91
2022/06/05 04:28:46;;;;;;;4.83;3.00;;;;;;;24.76;70.70;98983.75;5072549;28;20188;-91
2022/06/05 04:31:27;;;;;;;6.73;3.73;;;;;;;24.77;70.28;98972.00;5089549;28;20626;-91
2022/06/05 04:33:55;;;;;;;6.80;3.70;;;;;;;24.94;69.90;98972.78;5072675;28;20201;-91
2022/06/05 04:36:21;;;;;;;8.60;3.77;;;;;;;25.10;69.02;98955.78;5072555;28;20177;-92
2022/06/05 04:38:47;;;;;;;5.70;3.17;;;;;;;25.19;68.21;98960.06;5073674;28;20173;-91
2022/06/05 04:41:14;;;;;;;7.97;3.90;;;;;;;25.25;68.06;98967.41;5072440;28;20246;-90
2022/06/05 04:43:40;;;;;;;10.50;4.43;;;;;;;25.24;67.42;98976.47;5072461;28;20180;-91
2022/06/05 04:46:06;;;;;;;8.00;3.97;;;;;;;25.26;67.52;98966.41;5072412;28;20646;-91
2022/06/05 04:48:33;;;;;;;6.53;2.93;;;;;;;25.40;66.96;98962.94;5072387;28;20200;-90
2022/06/05 04:50:59;;;;;;;5.33;3.60;;;;;;;25.38;67.18;98956.91;5073269;28;20259;-92
2022/06/05 04:53:24;;;;;;;6.17;3.63;;;;;;;25.39;65.82;98958.59;5072542;28;20205;-91
2022/06/05 04:55:50;;;;;;;7.90;2.70;;;;;;;25.43;66.00;98954.53;5073217;28;20314;-91
2022/06/05 04:58:16;;;;;;;7.60;3.10;;;;;;;25.43;65.75;98960.75;5072073;28;20583;-91
2022/06/05 05:00:41;;;;;;;4.07;2.23;;;;;;;25.26;64.35;98964.53;5073210;28;20603;-91
2022/06/05 05:03:07;;;;;;;4.57;2.70;;;;;;;25.27;65.51;98966.22;5073402;28;20528;-90
2022/06/05 05:05:34;;;;;;;10.77;3.30;;;;;;;25.27;65.00;98968.06;5073059;28;20252;-91
2022/06/05 05:08:00;;;;;;;5.83;2.50;;;;;;;25.31;64.76;98972.06;5073062;28;20676;-89
2022/06/05 05:10:25;;;;;;;7.00;2.83;;;;;;;25.47;65.10;98961.25;5075023;28;20267;-90
2022/06/05 05:12:52;;;;;;;6.63;3.43;;;;;;;25.60;64.68;98962.31;5076989;28;20524;-90
2022/06/05 05:15:18;;;;;;;8.87;3.17;;;;;;;25.51;65.29;98974.13;5077004;28;20184;-90
2022/06/05 05:17:43;;;;;;;5.47;3.23;;;;;;;25.39;65.27;98966.66;5077333;28;20176;-89
2022/06/05 05:20:09;;;;;;;10.63;3.43;;;;;;;25.37;65.41;98971.34;5076949;28;20181;-90
2022/06/05 05:22:37;;;;;;;6.80;3.23;;;;;;;25.61;65.83;98973.88;5076886;28;20540;-90
2022/06/05 05:25:05;;;;;;;7.73;3.50;;;;;;;25.63;66.35;98977.22;5076810;28;20161;-90
2022/06/05 05:27:31;;;;;;;8.23;3.80;;;;;;;25.54;66.76;98973.78;5077313;28;20238;-89
2022/06/05 05:29:56;;;;;;;6.77;3.90;;;;;;;25.72;66.28;98980.69;5075644;28;20176;-91
2022/06/05 05:32:22;;;;;;;8.17;3.47;;;;;;;25.76;66.35;98982.00;5055953;28;20686;-90
2022/06/05 05:34:48;;;;;;;7.10;3.43;;;;;;;25.89;66.59;98977.66;5056628;28;20592;-89
2022/06/05 05:37:13;;;;;;;8.17;4.20;;;;;;;25.88;66.52;98976.00;5055689;28;20564;-91
2022/06/05 05:42:22;;;;;;;12.40;4.70;;;;;;;26.13;66.87;98976.63;5056828;28;20165;-90
2022/06/05 05:44:51;;;;;;;7.60;4.60;;;;;;;26.14;66.81;98964.88;5054721;28;20174;-90
2022/06/05 05:47:27;;;;;;;7.23;3.83;;;;;;;26.11;65.46;98970.59;5044662;28;20313;-91
2022/06/05 05:49:55;;;;;;;5.23;3.73;;;;;;;26.04;66.54;98959.75;5052409;28;20253;-90
2022/06/05 05:52:23;;;;;;;7.93;4.83;;;;;;;26.20;66.18;98948.84;5036892;28;20191;-90
2022/06/05 05:54:49;;;;;;;6.50;4.03;;;;;;;26.22;65.19;98951.38;5036726;28;20201;-91
2022/06/05 05:57:15;;;;;;;5.87;4.00;;;;;;;26.20;65.63;98954.22;5036712;28;20223;-89
2022/06/05 05:59:40;;;;;;;10.07;5.00;;;;;;;26.28;65.29;98965.91;5051891;28;20174;-89
2022/06/05 06:02:11;;;;;;;7.20;4.90;;;;;;;26.26;65.54;98957.22;5036343;28;20587;-92
2022/06/05 06:04:37;;;;;;;9.63;4.77;;;;;;;26.35;65.77;98951.56;5036155;28;20193;-90
2022/06/05 06:07:03;;;;;;;8.43;4.23;;;;;;;26.46;64.94;98964.53;5036191;28;20539;-90
2022/06/05 06:09:29;;;;;;;8.57;3.97;;;;;;;26.46;64.02;98953.78;5036368;28;20612;-92
2022/06/05 06:11:54;;;;;;;5.68;3.35;;;;;;;26.61;62.82;98951.91;5037951;28;20667;-91
2022/06/05 06:14:20;;;;;;;18.57;4.13;;;;;;;26.88;63.13;98954.97;5047976;28;20186;-89
2022/06/05 06:16:45;;;;;;;7.60;4.37;;;;;;;27.17;62.11;98955.75;5053108;28;20189;-90
2022/06/05 06:19:11;;;;;;;7.35;4.32;;;;;;;27.44;61.45;98959.56;5047419;28;20185;-90
2022/06/05 06:21:36;;;;;;;5.20;3.67;;;;;;;27.85;59.86;98960.56;5051337;28;20189;-90
2022/06/05 06:24:02;;;;;;;7.93;3.75;;;;;;;28.11;58.13;98953.75;5036029;28;20234;-89
2022/06/05 06:26:28;;;;;;;7.03;4.28;;;;;;;28.18;58.24;98955.47;5036372;28;20174;-91
2022/06/05 06:28:54;;;;;;;8.13;4.50;;;;;;;28.17;57.67;98955.66;5036062;28;20170;-91
2022/06/05 06:31:19;;;;;;;11.43;3.70;;;;;;;28.24;57.56;98951.97;5035707;28;20647;-90
2022/06/05 06:33:48;;;;;;;9.20;4.20;;;;;;;28.44;58.95;98962.88;5035494;28;20733;-90
2022/06/05 06:36:15;;;;;;;13.45;4.97;;;;;;;28.56;57.24;98962.09;5034025;28;20513;-91
2022/06/05 06:38:41;;;;;;;9.85;4.93;;;;;;;28.69;57.75;98960.56;5034765;28;20166;-90
2022/06/05 06:41:12;;;;;;;9.80;4.53;;;;;;;28.82;57.95;98955.22;5035498;28;20170;-92
2022/06/05 06:43:39;;;;;;;8.85;5.38;;;;;;;29.10;56.75;98955.94;5036012;28;20159;-91
2022/06/05 06:46:05;;;;;;;17.17;7.68;;;;;;;29.26;56.90;98954.78;5050952;28;20174;-90
2022/06/05 06:48:31;;;;;;;8.25;4.88;;;;;;;29.39;56.50;98962.91;5035878;28;20171;-90
2022/06/05 06:50:58;;;;;;;8.77;3.97;;;;;;;29.71;56.04;98962.97;5035554;28;20174;-90
2022/06/05 06:53:25;;;;;;;7.55;4.68;;;;;;;29.89;56.00;98961.53;5035764;28;20194;-91
2022/06/05 06:55:50;;;;;;;9.05;4.80;;;;;;;30.09;55.47;98954.25;5035198;28;20530;-90
2022/06/05 06:58:18;;;;;;;7.90;4.40;;;;;;;30.25;53.85;98949.22;5035132;28;20209;-91
2022/06/05 07:00:43;;;;;;;12.18;5.05;;;;;;;30.36;52.56;98942.38;5035704;28;20696;-92
2022/06/05 07:03:09;;;;;;;8.65;5.00;;;;;;;30.67;53.67;98941.66;5035138;28;20314;-91
2022/06/05 07:05:36;;;;;;;9.63;4.07;;;;;;;30.80;53.47;98945.16;5050827;28;20182;-91
2022/06/05 07:08:02;;;;;;;9.18;5.22;;;;;;;31.15;51.99;98942.09;5052719;28;20597;-91
2022/06/05 07:10:28;;;;;;;12.40;5.25;;;;;;;31.34;52.87;98933.03;5051838;28;20281;-91
2022/06/05 07:12:54;;;;;;;5.63;3.65;;;;;;;31.59;49.76;98937.47;5034945;28;20194;-90
2022/06/05 07:15:20;;;;;;;9.45;4.20;;;;;;;31.63;49.49;98950.59;5050983;28;20185;-92
2022/06/05 07:17:46;;;;;;;7.55;3.80;;;;;;;31.70;48.07;98948.66;5050509;28;20182;-90
2022/06/05 07:20:13;;;;;;;7.97;3.42;;;;;;;31.84;47.86;98945.59;5050413;28;20534;-91
2022/06/05 07:22:39;;;;;;;5.18;3.55;;;;;;;31.92;49.98;98948.03;5050442;28;20174;-91
2022/06/05 07:25:05;;;;;;;7.13;3.95;;;;;;;31.96;48.21;98943.84;5050336;28;20300;-91
2022/06/05 07:27:31;;;;;;;5.63;3.35;;;;;;;32.03;48.87;98941.94;5033813;28;20174;-91
2022/06/05 07:29:59;;;;;;;8.55;3.45;;;;;;;32.12;47.60;98943.31;5055322;28;20253;-91
2022/06/05 07:32:51;;;;;;;7.15;4.00;;;;;;;32.17;47.98;98943.47;5052917;28;20213;-90
2022/06/05 07:35:20;;;;;;;7.22;3.97;;;;;;;32.09;47.74;98938.34;5051381;28;20167;-91
2022/06/05 07:37:49;;;;;;;6.88;3.85;;;;;;;32.19;48.12;98952.22;5053071;28;20190;-91
2022/06/05 07:40:16;;;;;;;7.03;3.75;;;;;;;32.20;47.11;98944.91;5054194;28;20264;-92
2022/06/05 07:42:43;;;;;;;11.20;4.28;;;;;;;32.07;47.39;98937.75;5055984;28;20531;-90
2022/06/05 07:45:14;;;;;;;6.13;4.07;;;;;;;31.83;47.75;98935.84;5037310;28;20654;-92
2022/06/05 07:47:45;;;;;;;7.70;4.25;;;;;;;31.94;48.28;98940.53;5034862;28;20189;-90
2022/06/05 07:50:23;;;;;;;;;;;;;;;;;;;;;
2022/06/05 07:55:33;;;;;;;7.53;4.38;;;;;;;32.21;46.92;98938.41;5035644;28;20236;-89
2022/06/05 07:58:01;;;;;;;9.75;3.70;;;;;;;32.16;47.58;98935.53;5051371;28;20194;-91
2022/06/05 08:00:39;;;;;;;7.18;3.83;;;;;;;32.42;46.64;98937.16;5041798;28;20179;-90
2022/06/05 08:03:07;;;;;;;8.40;4.18;;;;;;;32.53;47.11;98928.31;5056442;28;20182;-91
2022/06/05 08:05:36;;;;;;;6.55;4.25;;;;;;;32.60;47.24;98939.94;5039915;28;20204;-91
2022/06/05 08:08:01;;;;;;;6.43;4.28;;;;;;;32.49;46.04;98932.50;5038924;28;20174;-90
2022/06/05 08:10:27;;;;;;;7.90;4.30;;;;;;;32.59;46.80;98935.53;5034215;28;20282;-89
2022/06/05 08:12:52;;;;;;;6.88;4.13;;;;;;;32.68;47.40;98943.16;5033677;28;20651;-91
2022/06/05 08:15:18;;;;;;;7.10;4.20;;;;;;;32.75;46.38;98934.94;5049522;28;20232;-90
2022/06/05 08:17:43;;;;;;;7.47;4.10;;;;;;;32.96;46.91;98934.47;5034328;28;20179;-89
2022/06/05 08:20:10;;;;;;;10.43;4.15;;;;;;;33.07;46.13;98935.59;5049257;28;20178;-91
2022/06/05 08:22:36;;;;;;;7.03;4.63;;;;;;;33.08;46.85;98935.38;5032650;28;20561;-90
2022/06/05 08:25:01;;;;;;;6.95;4.32;;;;;;;33.35;45.37;98933.94;5049139;28;20267;-90
2022/06/05 08:27:27;;;;;;;11.82;5.03;;;;;;;33.49;44.81;98928.31;5033510;28;20710;-90
2022/06/05 08:29:58;;;;;;;10.48;4.25;;;;;;;33.60;44.25;98922.91;5033519;28;20264;-91
2022/06/05 08:32:26;;;;;;;9.52;4.07;;;;;;;33.71;44.75;98930.28;5049336;28;20259;-91
2022/06/05 08:34:52;;;;;;;9.25;4.40;;;;;;;33.85;43.44;98922.72;5044177;28;20174;-92
2022/06/05 08:43:12;;;;;;;6.35;3.38;;;;;;;33.89;44.27;98913.03;5033926;28;20224;-90
2022/06/05 08:46:13;;;;;;;6.85;3.35;;;;;;;34.20;43.98;98915.41;5033575;28;20174;-91
2022/06/05 08:48:47;;;;;;;7.68;3.85;;;;;;;34.32;43.77;98916.25;5033120;28;20260;-90
2022/06/05 08:51:46;;;;;;;11.00;4.15;;;;;;;34.30;42.25;98912.94;5048950;28;20253;-90
2022/06/05 08:54:21;;;;;;;9.18;4.40;;;;;;;34.26;42.78;98914.47;5033565;28;20178;-90
2022/06/05 08:56:52;;;;;;;7.07;3.78;;;;;;;34.24;42.30;98907.63;5033597;28;20162;-91
2022/06/05 08:59:31;;;;;;;9.02;4.43;;;;;;;34.37;43.43;98908.19;5033420;28;20607;-90
2022/06/05 09:02:19;;;;;;;7.40;4.03;;;;;;;34.31;42.46;98916.47;5033486;28;20170;-93
2022/06/05 09:05:01;;;;;;;5.22;3.13;;;;;;;34.18;42.16;98912.09;5033703;28;20173;-90
2022/06/05 09:07:44;;;;;;;6.05;3.38;;;;;;;34.28;44.60;98901.44;5033472;28;20174;-91
2022/06/05 09:10:36;;;;;;;11.18;4.57;;;;;;;34.16;42.76;98906.09;5033481;28;20166;-90
2022/06/05 09:13:26;;;;;;;6.03;3.33;;;;;;;34.20;41.91;98899.09;5033267;28;20580;-91
2022/06/05 09:15:58;;;;;;;6.75;4.05;;;;;;;34.05;40.82;98897.88;5033414;28;20166;-93
2022/06/05 09:18:29;;;;;;;8.60;3.92;;;;;;;34.04;42.49;98894.34;5032982;28;20178;-90
2022/06/05 09:21:05;;;;;;;5.80;3.88;;;;;;;34.17;42.05;98893.31;5033548;28;20162;-92
2022/06/05 09:23:44;;;;;;;7.22;3.70;;;;;;;34.16;41.07;98886.22;5033543;28;20193;-90
2022/06/05 09:26:22;;;;;;;6.40;4.05;;;;;;;34.27;42.07;98888.09;5048595;28;20186;-90
2022/06/05 09:29:03;;;;;;;7.35;3.67;;;;;;;34.56;42.03;98887.97;5033239;28;20197;-92
2022/06/05 09:31:31;;;;;;;5.20;3.25;;;;;;;34.49;40.36;98876.31;5032925;28;20163;-90
2022/06/05 09:34:04;;;;;;;9.20;3.45;;;;;;;34.62;41.89;98871.72;5032837;28;20620;-90
2022/06/05 09:36:32;;;;;;;11.38;3.55;;;;;;;34.85;39.64;98866.19;5033060;28;20756;-94
2022/06/05 09:39:14;;;;;;;8.13;3.50;;;;;;;34.98;40.97;98866.72;5032837;28;20179;-91
2022/06/05 09:42:01;;;;;;;6.45;3.85;;;;;;;35.05;39.59;98864.72;5031868;28;20185;-92
2022/06/05 09:44:43;;;;;;;5.38;3.08;;;;;;;35.28;40.30;98868.34;5033034;28;20174;-91
2022/06/05 09:47:25;;;;;;;5.32;3.22;;;;;;;35.45;38.52;98869.22;5032919;28;20619;-91
2022/06/05 09:49:58;;;;;;;5.18;3.25;;;;;;;35.60;39.21;98862.16;5048264;28;20269;-90
2022/06/05 09:52:27;;;;;;;9.40;3.60;;;;;;;35.63;39.15;98861.66;5032863;28;20187;-92
2022/06/05 09:55:00;;;;;;;6.00;3.15;;;;;;;35.71;38.09;98869.41;5032760;28;20231;-91
2022/06/05 10:00:47;;;;;;;4.90;3.00;;;;;;;36.12;39.49;98856.41;5036496;28;20650;-91
2022/06/05 10:03:16;;;;;;;7.50;3.60;;;;;;;36.13;37.81;98847.97;5036213;28;20170;-92
2022/06/05 10:05:45;;;;;;;6.57;3.30;;;;;;;36.04;38.57;98844.00;5036393;28;20181;-91
2022/06/05 10:08:20;;;;;;;6.68;3.17;;;;;;;36.23;36.86;98844.53;5036297;28;20174;-92
2022/06/05 10:10:48;;;;;;;5.35;2.70;;;;;;;36.43;36.99;98852.19;5036687;28;20245;-91
2022/06/05 10:13:30;;;;;;;5.65;3.22;;;;;;;36.57;36.13;98845.28;5036018;28;20202;-92
2022/06/05 10:16:06;;;;;;;4.97;2.70;;;;;;;36.70;36.68;98840.25;5036206;28;20198;-90
2022/06/05 10:18:49;;;;;;;11.55;3.97;;;;;;;36.87;35.30;98831.97;5036576;28;20553;-91
2022/06/05 10:21:20;;;;;;;7.32;2.95;;;;;;;37.03;35.74;98822.84;5052452;28;20166;-91
2022/06/05 10:23:45;;;;;;;5.25;3.03;;;;;;;37.05;35.81;98823.44;5035807;28;20519;-92
2022/06/05 10:26:20;;;;;;;5.35;3.05;;;;;;;37.17;35.93;98817.78;5035894;28;20174;-92
2022/06/05 10:28:49;;;;;;;4.78;2.47;;;;;;;37.32;35.08;98823.38;5036181;28;20166;-91
2022/06/05 10:31:21;;;;;;;6.53;3.55;;;;;;;37.38;35.35;98830.56;5036683;28;20171;-91
2022/06/05 10:34:03;;;;;;;5.95;3.10;;;;;;;37.45;35.20;98825.72;5035720;28;20213;-93
2022/06/05 10:36:44;;;;;;;8.32;3.25;;;;;;;37.64;34.58;98809.72;5051606;28;20170;-93
2022/06/05 10:39:35;;;;;;;4.35;2.90;;;;;;;37.71;32.66;98807.59;5051402;28;20185;-93
2022/06/05 10:42:23;;;;;;;6.35;2.95;;;;;;;37.31;34.43;98806.19;5036425;28;20181;-92
2022/06/05 10:45:15;;;;;;;5.93;2.55;;;;;;;37.34;33.52;98799.38;5031793;28;20190;-92
2022/06/05 10:48:22;;;;;;;7.40;2.92;;;;;;;37.49;33.40;98799.50;5051411;28;20174;-91
2022/06/05 10:50:55;;;;;;;5.00;2.92;;;;;;;37.33;32.87;98794.97;5035232;28;20233;-92
2022/06/05 10:53:42;;;;;;;5.88;2.50;;;;;;;37.40;33.35;98787.34;5035655;28;20194;-92
2022/06/05 10:56:22;;;;;;;9.43;3.83;;;;;;;37.05;34.68;98789.81;5035639;28;20170;-89
2022/06/05 10:59:16;;;;;;;8.70;4.18;;;;;;;36.81;35.36;98787.38;5051087;28;20213;-90
2022/06/05 11:02:13;;;;;;;9.52;3.40;;;;;;;36.81;35.20;98770.97;5035071;28;20188;-90
2022/06/05 11:04:49;;;;;;;5.60;3.00;;;;;;;36.83;35.66;98774.28;5035112;28;20308;-93
2022/06/05 11:07:28;;;;;;;6.93;2.83;;;;;;;36.90;35.80;98772.16;5050996;28;20544;-91
2022/06/05 11:10:02;;;;;;;5.68;2.63;;;;;;;36.84;35.62;98767.75;5034301;28;20601;-91
2022/06/05 11:15:52;;;;;;;8.20;3.30;;;;;;;36.68;35.24;98765.94;5035461;28;20181;-89
2022/06/05 11:18:38;;;;;;;5.85;2.85;;;;;;;36.88;36.16;98762.56;5050505;28;20192;-89
2022/06/05 11:21:05;;;;;;;5.30;2.78;;;;;;;36.91;34.47;98751.94;5035070;28;20242;-89
2022/06/05 11:23:38;;;;;;;5.30;3.53;;;;;;;36.99;36.28;98745.22;5034729;28;20174;-89
2022/06/05 11:26:04;;;;;;;5.53;3.88;;;;;;;37.07;35.34;98746.63;5035462;28;20181;-89
2022/06/05 11:28:52;;;;;;;7.30;3.50;;;;;;;37.07;34.38;98750.19;5034606;28;20174;-90
2022/06/05 11:31:23;;;;;;;5.13;2.92;;;;;;;37.17;35.61;98760.38;5035555;28;20185;-89
2022/06/05 11:34:03;;;;;;;8.50;4.50;;;;;;;36.93;35.63;98749.78;5045944;28;20241;-89
2022/06/05 11:36:48;;;;;;;5.38;2.90;;;;;;;37.02;35.07;98755.63;5054970;28;20162;-89
2022/06/05 11:39:34;;;;;;;7.05;3.25;;;;;;;37.07;35.96;98739.28;5054668;28;20186;-89
2022/06/05 11:42:00;;;;;;;5.32;2.95;;;;;;;37.13;36.40;98740.13;5054309;28;20177;-89
2022/06/05 11:44:37;;;;;;;5.15;3.17;;;;;;;37.16;36.57;98739.63;5054037;28;20581;-89
2022/06/05 11:47:10;;;;;;;5.15;3.33;;;;;;;37.15;35.93;98724.28;5054430;28;20242;-89
2022/06/05 11:49:56;;;;;;;4.65;2.78;;;;;;;37.21;36.52;98737.75;5053784;28;20174;-89
2022/06/05 11:52:33;;;;;;;7.18;3.10;;;;;;;37.16;36.44;98736.88;5054244;28;20232;-89
2022/06/05 11:55:20;;;;;;;14.52;4.00;;;;;;;37.07;37.39;98727.50;5054673;28;20181;-89
2022/06/05 11:58:01;;;;;;;5.65;3.13;;;;;;;36.97;37.57;98732.91;5053413;28;20285;-89
2022/06/05 12:00:50;;;;;;;6.82;3.20;;;;;;;36.88;37.28;98716.09;5054285;28;20169;-89
2022/06/05 12:03:40;;;;;;;8.13;3.20;;;;;;;37.03;36.66;98704.53;5054236;28;20174;-89
2022/06/05 12:06:42;;;;;;;5.65;3.03;;;;;;;36.84;36.36;98699.44;5037973;28;20293;-89
2022/06/05 12:09:26;;;;;;;6.70;3.45;;;;;;;37.10;36.21;98705.13;5047829;28;20238;-90
2022/06/05 12:12:06;;;;;;;5.28;2.97;;;;;;;37.35;35.99;98706.13;5045574;28;20212;-89
2022/06/05 12:14:41;;;;;;;5.57;3.40;;;;;;;37.42;34.70;98706.72;5034105;28;20178;-90
2022/06/05 12:17:43;;;;;;;8.95;3.45;;;;;;;37.46;34.75;98707.88;5033780;28;20265;-90
2022/06/05 12:20:37;;;;;;;6.40;3.47;;;;;;;37.43;35.06;98705.66;5043383;28;20654;-90
2022/06/05 12:23:30;;;;;;;7.97;3.60;;;;;;;37.38;35.01;98718.44;5049092;28;20187;-90